Gordonsville Muni Information

FAA: GVE - ICAO: KGVE

Gordonsville Muni (Airport) Location

State Virginia
County Orange
City Gordonsville
Gordonsville Muni (Airport) is 3 miles northeast of Gordonsville, VA.
Latitude 38-09-21.5860N
Longitude 078-09-56.8080W
Elevation 454ft

Gordonsville Muni METARs

METAR KGVE 191255Z AUTO 00000KT 10SM CLR 20/17 A2977 RMK AO1 T01970174
Altimeter 29.77"
Temperature 19.7°C (67.5°F)
Wind 0° at 0KT
Clouds Skies are clear.
Visibility 10.0mi
Time observed: 2022-05-19T12:55:00Z

Gordonsville Muni (Airport) Details

Status Operational
Activation March 1940
Ownership Public
Usage Public
Chart WASHINGTON
ATC on-site No
Beacon schedule sunset-sunrise
Beacon color clear green

Gordonsville Muni (Airport) Contacts

Owner TOWN OF GORDONSVILLE
Owner address P.O. BOX 276, GORDONSVILLE, VA 22942
Owner phone 540-832-2233
Manager MARK J. PRICE
Manager address RT 1, BOX 609, RINER, VA 24149
Manager phone 703-763-3636

Gordonsville Muni Radio Frequencies

Gordonsville Muni (Airport) Radio Frequencies

UNICOM 123
Common traffic advisory frequency (CTAF) 123